Time;durP1;ratioP1;P1;durP2;ratioP2;P2;SDS_P1;SDS_P2;PMS_P1;PMS_P2;Temp;Humidity;BMP_temperature;BMP_pressure;BME280_temperature;BME280_humidity;BME280_pressure;Samples;Min_cycle;Max_cycle;Signal;HPM_P1;HPM_P2
2022/08/07 00:01:21;;;;;;;2.83;2.53;;;23.10;42.20;;;;;;5015178;28;20216;-45
2022/08/07 00:03:47;;;;;;;3.33;3.03;;;23.10;42.40;;;;;;5015394;28;20204;-48
2022/08/07 00:06:13;;;;;;;4.87;2.73;;;22.80;42.70;;;;;;5025470;28;20421;-49
2022/08/07 00:08:39;;;;;;;4.10;2.77;;;22.80;42.90;;;;;;5010187;28;20194;-45
2022/08/07 00:11:05;;;;;;;2.87;2.67;;;22.80;42.80;;;;;;5013176;28;20887;-44
2022/08/07 00:13:32;;;;;;;2.23;2.03;;;22.80;42.70;;;;;;5011494;28;20453;-47
2022/08/07 00:15:58;;;;;;;3.13;1.93;;;22.80;42.50;;;;;;5014151;28;20570;-45
2022/08/07 00:18:27;;;;;;;2.70;2.50;;;22.80;42.50;;;;;;5013679;28;20437;-46
2022/08/07 00:21:01;;;;;;;3.83;2.37;;;22.80;42.70;;;;;;5014191;28;20421;-44
2022/08/07 00:23:27;;;;;;;3.63;2.23;;;22.80;42.90;;;;;;5013268;28;20750;-48
2022/08/07 00:25:53;;;;;;;2.33;2.13;;;22.70;42.90;;;;;;5013756;28;20424;-47
2022/08/07 00:28:19;;;;;;;4.87;2.33;;;22.70;43.00;;;;;;5013451;28;20428;-45
2022/08/07 00:30:45;;;;;;;2.37;2.17;;;22.60;42.90;;;;;;5013909;28;20232;-44
2022/08/07 00:33:11;;;;;;;2.87;2.30;;;22.60;43.00;;;;;;5013681;28;20429;-45
2022/08/07 00:35:37;;;;;;;2.80;2.60;;;22.50;43.00;;;;;;5013114;28;20256;-45
2022/08/07 00:38:03;;;;;;;4.23;2.53;;;22.40;43.00;;;;;;5013021;28;20190;-45
2022/08/07 00:40:30;;;;;;;3.40;2.67;;;22.40;43.10;;;;;;5012458;28;20657;-48
2022/08/07 00:42:56;;;;;;;2.33;2.13;;;22.30;43.20;;;;;;5013276;28;20437;-45
2022/08/07 00:45:22;;;;;;;3.17;2.17;;;22.30;42.60;;;;;;5013003;28;20437;-45
2022/08/07 00:47:49;;;;;;;5.10;2.53;;;22.30;42.40;;;;;;5013561;28;20213;-45
2022/08/07 00:50:15;;;;;;;3.10;2.73;;;22.30;42.90;;;;;;5019814;28;20424;-46
2022/08/07 00:52:41;;;;;;;2.80;2.30;;;22.30;42.90;;;;;;5033095;28;20982;-44
2022/08/07 00:55:07;;;;;;;3.90;2.53;;;22.30;42.80;;;;;;5025303;28;20441;-45
2022/08/07 00:57:33;;;;;;;2.00;1.90;;;22.30;42.50;;;;;;5013352;28;20244;-45
2022/08/07 00:59:58;;;;;;;2.40;2.20;;;22.20;42.50;;;;;;5012895;28;20421;-44
2022/08/07 01:02:25;;;;;;;2.73;2.53;;;22.20;43.10;;;;;;5018177;28;20712;-44
2022/08/07 01:04:51;;;;;;;2.93;2.30;;;22.20;43.60;;;;;;5025160;28;20232;-46
2022/08/07 01:07:20;;;;;;;2.80;2.50;;;22.10;43.70;;;;;;5019318;28;20844;-46
2022/08/07 01:09:46;;;;;;;2.60;2.40;;;22.10;43.80;;;;;;5019588;28;20466;-45
2022/08/07 01:12:14;;;;;;;3.60;2.90;;;22.00;44.00;;;;;;5032699;28;20915;-48
2022/08/07 01:14:40;;;;;;;2.83;2.60;;;22.00;44.70;;;;;;5032315;28;20919;-44
2022/08/07 01:17:06;;;;;;;2.90;2.30;;;21.90;44.00;;;;;;5032867;28;20464;-44
2022/08/07 01:19:33;;;;;;;4.10;2.50;;;21.80;44.00;;;;;;5032255;28;20459;-44
2022/08/07 01:22:00;;;;;;;4.13;2.67;;;21.80;44.20;;;;;;5031810;28;20198;-44
2022/08/07 01:24:27;;;;;;;2.80;2.60;;;21.70;44.10;;;;;;5031638;28;20505;-44
2022/08/07 01:26:53;;;;;;;2.40;2.30;;;21.70;44.30;;;;;;5032652;28;20424;-44
2022/08/07 01:29:23;;;;;;;4.53;2.40;;;21.60;44.10;;;;;;5031904;28;20927;-45
2022/08/07 01:31:50;;;;;;;3.00;1.97;;;21.60;44.00;;;;;;5030536;28;20996;-46
2022/08/07 01:34:16;;;;;;;2.40;2.20;;;21.70;43.90;;;;;;5031805;28;20481;-49
2022/08/07 01:36:42;;;;;;;2.20;2.10;;;21.70;43.80;;;;;;5032657;28;20531;-49
2022/08/07 01:39:08;;;;;;;2.50;2.30;;;21.70;43.80;;;;;;5031946;28;20434;-48
2022/08/07 01:41:34;;;;;;;2.37;2.17;;;21.70;43.80;;;;;;5032098;28;20508;-49
2022/08/07 01:44:01;;;;;;;2.63;2.43;;;21.70;43.80;;;;;;5031548;28;20189;-46
2022/08/07 01:46:26;;;;;;;3.20;2.07;;;21.70;44.00;;;;;;5032421;28;20487;-48
2022/08/07 01:48:52;;;;;;;2.30;2.20;;;21.70;44.10;;;;;;5031760;28;20428;-48
2022/08/07 01:51:21;;;;;;;3.53;2.43;;;21.70;44.40;;;;;;5031858;28;20688;-45
2022/08/07 01:53:50;;;;;;;2.97;2.40;;;21.70;44.60;;;;;;5031102;28;20655;-48
2022/08/07 01:56:22;;;;;;;1.90;1.80;;;21.60;44.60;;;;;;5015719;28;20527;-48
2022/08/07 01:58:58;;;;;;;2.43;2.07;;;21.60;44.60;;;;;;5010421;28;20425;-45
2022/08/07 02:01:30;;;;;;;2.03;1.83;;;21.50;44.40;;;;;;5016654;28;20502;-48
2022/08/07 02:04:01;;;;;;;2.30;2.03;;;21.40;44.30;;;;;;5018155;28;20485;-45
2022/08/07 02:06:30;;;;;;;2.33;2.10;;;21.30;44.40;;;;;;5012414;28;20794;-45
2022/08/07 02:08:58;;;;;;;4.80;2.50;;;21.30;44.60;;;;;;5011730;28;20828;-48
2022/08/07 02:11:24;;;;;;;2.80;2.60;;;21.30;44.90;;;;;;5011921;28;20491;-47
2022/08/07 02:13:51;;;;;;;3.30;2.90;;;21.20;45.20;;;;;;5011012;28;20421;-47
2022/08/07 02:16:18;;;;;;;3.10;2.90;;;21.20;45.40;;;;;;5012084;28;20190;-48
2022/08/07 02:18:46;;;;;;;4.10;2.80;;;21.20;45.30;;;;;;5011660;28;20421;-46
2022/08/07 02:21:12;;;;;;;3.33;2.80;;;21.20;45.40;;;;;;5012018;28;20428;-50
2022/08/07 02:23:39;;;;;;;2.57;2.40;;;21.20;45.40;;;;;;5010974;28;21066;-47
2022/08/07 02:26:06;;;;;;;3.70;3.00;;;21.20;45.30;;;;;;5010406;28;20197;-49
2022/08/07 02:28:35;;;;;;;2.67;2.47;;;21.20;45.10;;;;;;5011145;28;20536;-47
2022/08/07 02:31:03;;;;;;;3.03;2.73;;;21.30;45.10;;;;;;5011382;28;20480;-44
2022/08/07 02:33:31;;;;;;;2.73;2.53;;;21.20;44.80;;;;;;5010584;28;20528;-49
2022/08/07 02:35:57;;;;;;;2.97;2.73;;;21.20;44.90;;;;;;5011626;28;20939;-47
2022/08/07 02:38:27;;;;;;;4.70;3.00;;;21.10;45.20;;;;;;5010763;28;20448;-46
2022/08/07 02:40:55;;;;;;;3.03;2.70;;;21.10;45.40;;;;;;5011450;28;20575;-44
2022/08/07 02:43:22;;;;;;;3.33;2.67;;;21.00;45.20;;;;;;5010662;28;20425;-45
2022/08/07 02:45:50;;;;;;;3.60;2.53;;;21.00;45.40;;;;;;5011311;28;20566;-45
2022/08/07 02:48:16;;;;;;;3.17;2.87;;;21.00;45.30;;;;;;5011317;28;20508;-45
2022/08/07 02:50:43;;;;;;;2.83;2.60;;;21.00;45.40;;;;;;5011251;28;21039;-44
2022/08/07 02:53:14;;;;;;;3.10;2.60;;;21.00;45.40;;;;;;5013686;28;20474;-44
2022/08/07 02:55:46;;;;;;;3.20;2.30;;;21.00;45.20;;;;;;5019091;28;20440;-45
2022/08/07 02:58:17;;;;;;;5.10;2.60;;;21.00;45.00;;;;;;5011339;28;20421;-44
2022/08/07 03:00:46;;;;;;;2.60;2.40;;;21.00;45.30;;;;;;5015610;28;20543;-47
2022/08/07 03:03:14;;;;;;;3.87;2.80;;;21.10;45.70;;;;;;5024280;28;20433;-47
2022/08/07 03:05:40;;;;;;;3.50;2.63;;;21.00;46.00;;;;;;5029909;28;20432;-44
2022/08/07 03:08:06;;;;;;;3.40;2.27;;;21.00;46.20;;;;;;5011251;28;20530;-47
2022/08/07 03:10:32;;;;;;;2.70;2.50;;;21.00;46.80;;;;;;5010533;28;20472;-44
2022/08/07 03:13:00;;;;;;;2.57;2.27;;;21.00;46.90;;;;;;5010850;28;20503;-45
2022/08/07 03:15:27;;;;;;;2.60;2.20;;;20.90;46.90;;;;;;5010357;28;20429;-44
2022/08/07 03:17:53;;;;;;;2.13;1.97;;;20.80;46.90;;;;;;5011091;28;20453;-45
2022/08/07 03:20:19;;;;;;;2.23;2.13;;;20.80;46.80;;;;;;5009118;28;20456;-46
2022/08/07 03:22:46;;;;;;;2.33;2.23;;;20.80;46.80;;;;;;5009615;28;20221;-44
2022/08/07 03:25:11;;;;;;;2.40;2.20;;;20.70;46.70;;;;;;5010412;28;20779;-46
2022/08/07 03:27:40;;;;;;;6.30;2.33;;;20.70;46.70;;;;;;5011101;28;20429;-45
2022/08/07 03:30:07;;;;;;;3.60;3.30;;;20.70;46.70;;;;;;5010635;28;20289;-48
2022/08/07 03:32:38;;;;;;;4.33;3.17;;;20.70;46.60;;;;;;5010644;28;20904;-45
2022/08/07 03:35:11;;;;;;;3.83;3.47;;;20.70;47.20;;;;;;5010412;28;20429;-46
2022/08/07 03:37:38;;;;;;;3.83;3.43;;;20.70;46.70;;;;;;5010785;28;20922;-44
2022/08/07 03:40:05;;;;;;;3.57;3.10;;;20.60;46.70;;;;;;5010425;28;20433;-45
2022/08/07 03:42:33;;;;;;;4.77;2.80;;;20.60;46.70;;;;;;5010705;28;20417;-45
2022/08/07 03:44:59;;;;;;;4.07;2.70;;;20.50;46.70;;;;;;5009755;28;20516;-48
2022/08/07 03:47:29;;;;;;;2.47;2.27;;;20.40;46.80;;;;;;5014794;28;20516;-44
2022/08/07 03:49:56;;;;;;;2.00;1.90;;;20.40;46.50;;;;;;5014433;28;20190;-45
2022/08/07 03:52:25;;;;;;;2.30;2.20;;;20.40;46.30;;;;;;5014537;28;20549;-45
2022/08/07 03:54:52;;;;;;;2.50;2.13;;;20.40;46.20;;;;;;5018495;28;20432;-44
2022/08/07 03:57:19;;;;;;;2.00;1.90;;;20.40;46.00;;;;;;5034297;28;20423;-44
2022/08/07 03:59:45;;;;;;;1.80;1.70;;;20.40;45.80;;;;;;5032568;28;20853;-44
2022/08/07 04:02:11;;;;;;;3.20;2.20;;;20.40;45.80;;;;;;5022836;28;20436;-45
2022/08/07 04:04:37;;;;;;;1.80;1.70;;;20.40;45.80;;;;;;5025545;28;20193;-45
2022/08/07 04:07:03;;;;;;;2.07;1.83;;;20.40;45.80;;;;;;5023140;28;20186;-48
2022/08/07 04:09:30;;;;;;;1.80;1.70;;;20.40;45.60;;;;;;5013834;28;20963;-44
2022/08/07 04:11:56;;;;;;;2.13;2.00;;;20.40;45.50;;;;;;5012628;28;20480;-47
2022/08/07 04:14:23;;;;;;;4.20;2.10;;;20.50;45.60;;;;;;5013484;28;20432;-44
2022/08/07 04:16:49;;;;;;;2.00;1.90;;;20.50;45.60;;;;;;5014031;28;20248;-44
2022/08/07 04:19:15;;;;;;;2.03;1.90;;;20.50;45.60;;;;;;5013717;28;20433;-48
2022/08/07 04:21:41;;;;;;;1.97;1.87;;;20.50;45.80;;;;;;5014186;28;20194;-44
2022/08/07 04:24:09;;;;;;;2.33;1.60;;;20.50;45.90;;;;;;5013354;28;20663;-44
2022/08/07 04:26:38;;;;;;;1.87;1.73;;;20.40;45.90;;;;;;5013795;28;20534;-44
2022/08/07 04:29:08;;;;;;;1.90;1.80;;;20.40;45.70;;;;;;5013451;28;20587;-44
2022/08/07 04:31:36;;;;;;;3.23;2.00;;;20.40;45.60;;;;;;5013824;28;21045;-44
2022/08/07 04:34:03;;;;;;;2.37;1.80;;;20.40;45.70;;;;;;5012813;28;20572;-45
2022/08/07 04:36:28;;;;;;;2.83;1.70;;;20.40;45.80;;;;;;5013920;28;20854;-44
2022/08/07 04:38:54;;;;;;;2.17;1.70;;;20.50;45.70;;;;;;5011633;28;20456;-45
2022/08/07 04:41:20;;;;;;;2.87;2.57;;;20.50;45.90;;;;;;5013749;28;20331;-44
2022/08/07 04:43:46;;;;;;;2.50;2.30;;;20.50;45.80;;;;;;5012997;28;20609;-44
2022/08/07 04:46:22;;;;;;;2.60;1.80;;;20.60;45.80;;;;;;5013891;28;20198;-45
2022/08/07 04:49:15;;;;;;;2.50;2.30;;;20.50;45.90;;;;;;5019881;28;20201;-45
2022/08/07 04:52:00;;;;;;;2.27;2.07;;;20.60;45.70;;;;;;5033087;28;20822;-43
2022/08/07 04:54:33;;;;;;;2.00;1.90;;;20.60;45.70;;;;;;5030662;28;20426;-45
2022/08/07 04:57:10;;;;;;;2.10;1.90;;;20.60;45.90;;;;;;5013620;28;20778;-44
2022/08/07 04:59:45;;;;;;;2.40;2.20;;;20.70;46.00;;;;;;5012746;28;20475;-44
2022/08/07 05:02:42;;;;;;;2.20;2.00;;;20.60;46.10;;;;;;5017653;28;20483;-44
2022/08/07 05:05:19;;;;;;;2.10;1.90;;;20.70;46.20;;;;;;5026907;28;20448;-44
2022/08/07 05:08:02;;;;;;;2.33;2.03;;;20.70;46.10;;;;;;5015701;28;20432;-44
2022/08/07 05:11:00;;;;;;;2.40;1.90;;;20.80;46.10;;;;;;5012693;28;20480;-44
2022/08/07 05:13:37;;;;;;;2.30;2.10;;;20.80;46.10;;;;;;5023173;28;20440;-44
2022/08/07 05:16:09;;;;;;;4.30;1.87;;;20.80;45.90;;;;;;5032905;28;20432;-44
2022/08/07 05:18:39;;;;;;;1.50;1.40;;;20.90;46.00;;;;;;5032499;28;20494;-45
2022/08/07 05:21:11;;;;;;;2.10;1.80;;;20.90;46.10;;;;;;5032873;28;20428;-45
2022/08/07 05:23:56;;;;;;;2.20;2.10;;;20.90;46.10;;;;;;5031764;28;20485;-46
2022/08/07 05:26:24;;;;;;;2.47;2.23;;;20.90;46.20;;;;;;5032710;28;20902;-45
2022/08/07 05:28:56;;;;;;;2.37;2.17;;;21.00;46.20;;;;;;5032063;28;20827;-44
2022/08/07 05:31:25;;;;;;;2.20;2.10;;;21.10;46.30;;;;;;5031524;28;20966;-46
2022/08/07 05:33:52;;;;;;;2.43;2.23;;;21.10;46.20;;;;;;5031190;28;20519;-44
2022/08/07 05:36:21;;;;;;;3.33;2.10;;;21.30;46.10;;;;;;5032673;28;20903;-45
2022/08/07 05:38:48;;;;;;;2.53;2.33;;;21.30;46.20;;;;;;5031834;28;20424;-44
2022/08/07 05:41:14;;;;;;;2.97;2.67;;;21.30;46.30;;;;;;5032354;28;20489;-44
2022/08/07 05:43:42;;;;;;;2.90;2.20;;;21.10;46.90;;;;;;5031393;28;20412;-44
2022/08/07 05:46:09;;;;;;;3.83;2.53;;;21.00;47.60;;;;;;5032078;28;20931;-45
2022/08/07 05:48:36;;;;;;;3.00;2.80;;;21.10;47.50;;;;;;5031786;28;20573;-48
2022/08/07 05:51:03;;;;;;;2.73;2.53;;;20.90;48.00;;;;;;5031857;28;20545;-46
2022/08/07 05:53:29;;;;;;;4.60;2.53;;;20.80;48.80;;;;;;5031035;28;20990;-47
2022/08/07 05:55:55;;;;;;;4.17;2.60;;;20.70;49.10;;;;;;5018641;28;20955;-47
2022/08/07 05:58:25;;;;;;;2.50;2.40;;;20.40;49.80;;;;;;5010070;28;20436;-48
2022/08/07 06:00:53;;;;;;;3.90;2.87;;;20.40;50.10;;;;;;5016245;28;20451;-45
2022/08/07 06:03:23;;;;;;;3.00;2.80;;;20.40;50.20;;;;;;5012674;28;20421;-44
2022/08/07 06:05:50;;;;;;;3.33;2.40;;;20.50;50.30;;;;;;5029652;28;20440;-47
2022/08/07 06:08:16;;;;;;;2.80;2.60;;;20.90;49.70;;;;;;5011552;28;20508;-47
2022/08/07 06:10:43;;;;;;;4.67;2.93;;;21.40;49.10;;;;;;5011728;28;20572;-46
2022/08/07 06:13:09;;;;;;;3.00;2.80;;;21.70;48.40;;;;;;5011796;28;20424;-44
2022/08/07 06:15:35;;;;;;;3.50;2.70;;;21.70;48.40;;;;;;5011727;28;20507;-48
2022/08/07 06:18:02;;;;;;;3.43;2.97;;;22.00;47.70;;;;;;5012048;28;21186;-44
2022/08/07 06:20:29;;;;;;;3.17;2.97;;;22.30;47.20;;;;;;5011202;28;20797;-46
2022/08/07 06:22:56;;;;;;;3.20;3.00;;;22.60;46.80;;;;;;5011560;28;20435;-45
2022/08/07 06:25:22;;;;;;;3.40;3.10;;;22.80;46.80;;;;;;5009701;28;20499;-47
2022/08/07 06:27:48;;;;;;;3.50;2.80;;;23.00;46.40;;;;;;5013243;28;20425;-45
2022/08/07 06:30:13;;;;;;;2.93;2.73;;;23.10;46.00;;;;;;5027487;28;20209;-48
2022/08/07 06:32:39;;;;;;;3.37;3.17;;;23.20;45.70;;;;;;5011298;28;20234;-47
2022/08/07 06:35:05;;;;;;;2.47;2.27;;;23.50;45.50;;;;;;5011136;28;20274;-47
2022/08/07 06:37:31;;;;;;;3.00;2.80;;;23.50;45.30;;;;;;5011736;28;20194;-46
2022/08/07 06:39:56;;;;;;;4.20;3.07;;;23.80;45.40;;;;;;5010993;28;20428;-46
2022/08/07 06:42:22;;;;;;;3.20;2.90;;;23.90;45.00;;;;;;5011352;28;20715;-45
2022/08/07 06:44:49;;;;;;;3.63;2.50;;;24.00;45.00;;;;;;5010973;28;20228;-45
2022/08/07 06:47:15;;;;;;;3.17;2.90;;;24.10;45.10;;;;;;5011610;28;20223;-48
2022/08/07 06:49:42;;;;;;;2.83;2.63;;;24.30;44.90;;;;;;5010752;28;20460;-48
2022/08/07 06:52:10;;;;;;;3.03;2.50;;;24.40;44.30;;;;;;5009351;28;20222;-47
2022/08/07 06:54:38;;;;;;;3.03;2.83;;;24.60;44.40;;;;;;5023710;28;20495;-47
2022/08/07 06:57:06;;;;;;;3.20;2.90;;;24.70;44.20;;;;;;5011391;28;20432;-48
2022/08/07 06:59:34;;;;;;;2.77;2.57;;;24.90;43.90;;;;;;5010368;28;20435;-49
2022/08/07 07:02:01;;;;;;;3.10;2.80;;;25.00;44.70;;;;;;5015263;28;20490;-48
2022/08/07 07:04:29;;;;;;;2.63;2.50;;;25.20;43.90;;;;;;5020751;28;20467;-45
2022/08/07 07:06:55;;;;;;;3.00;2.70;;;25.40;43.60;;;;;;5019667;28;20433;-48
2022/08/07 07:09:26;;;;;;;2.80;2.60;;;25.60;43.50;;;;;;5010598;28;20484;-46
2022/08/07 07:12:06;;;;;;;3.10;2.90;;;25.40;44.10;;;;;;5011178;28;21023;-45
2022/08/07 07:14:44;;;;;;;3.10;2.90;;;25.30;44.40;;;;;;5016978;28;20462;-45
2022/08/07 07:17:15;;;;;;;2.83;2.63;;;25.20;44.70;;;;;;5030870;28;20442;-46
2022/08/07 07:19:47;;;;;;;2.63;2.43;;;25.30;44.60;;;;;;5026401;28;20510;-49
2022/08/07 07:22:14;;;;;;;3.17;2.97;;;25.20;44.70;;;;;;5030388;28;20490;-48
2022/08/07 07:24:41;;;;;;;3.07;2.77;;;25.30;45.10;;;;;;5030252;28;20433;-49
2022/08/07 07:27:09;;;;;;;2.90;2.70;;;25.20;45.00;;;;;;5030763;28;20424;-47
2022/08/07 07:29:42;;;;;;;2.73;2.53;;;25.00;45.10;;;;;;5030046;28;20620;-46
2022/08/07 07:32:11;;;;;;;2.80;2.60;;;24.80;45.10;;;;;;5030347;28;20483;-47
2022/08/07 07:34:42;;;;;;;3.80;2.60;;;25.20;45.20;;;;;;5030288;28;20523;-48
2022/08/07 07:37:10;;;;;;;2.43;2.23;;;25.30;43.70;;;;;;5030569;28;20451;-47
2022/08/07 07:39:38;;;;;;;2.20;2.00;;;25.60;42.40;;;;;;5029905;28;20870;-46
2022/08/07 07:42:06;;;;;;;2.10;2.00;;;25.60;41.20;;;;;;5030466;28;20428;-48
2022/08/07 07:44:35;;;;;;;1.97;1.87;;;25.60;42.10;;;;;;5029788;28;20502;-48
2022/08/07 07:47:01;;;;;;;2.00;1.90;;;25.70;41.50;;;;;;5028765;28;20421;-47
2022/08/07 07:49:28;;;;;;;1.97;1.87;;;25.80;41.30;;;;;;5030302;28;20452;-45
2022/08/07 07:51:56;;;;;;;2.40;2.20;;;25.70;40.80;;;;;;5028789;28;20582;-48
2022/08/07 07:54:23;;;;;;;2.20;2.10;;;25.90;40.80;;;;;;5028578;28;20460;-47
2022/08/07 07:56:51;;;;;;;2.00;1.90;;;25.50;40.80;;;;;;5010614;28;20437;-46
2022/08/07 07:59:18;;;;;;;2.20;2.10;;;25.20;41.60;;;;;;5010156;28;20809;-45
2022/08/07 08:01:47;;;;;;;2.60;2.30;;;25.40;41.40;;;;;;5015119;28;20432;-49
2022/08/07 08:04:15;;;;;;;2.37;2.27;;;25.90;40.80;;;;;;5018279;28;20474;-46
2022/08/07 08:06:43;;;;;;;1.97;1.87;;;26.30;39.70;;;;;;5021721;28;20436;-45
2022/08/07 08:09:10;;;;;;;1.30;1.30;;;26.40;39.20;;;;;;5008543;28;20445;-45
2022/08/07 08:11:36;;;;;;;2.13;1.50;;;26.70;37.90;;;;;;5010681;28;20748;-48
2022/08/07 08:14:02;;;;;;;1.60;1.50;;;27.00;35.70;;;;;;5007904;28;20951;-46
2022/08/07 08:16:35;;;;;;;3.07;2.10;;;27.50;35.30;;;;;;5010542;28;20417;-45
2022/08/07 08:19:04;;;;;;;1.87;1.77;;;27.90;35.60;;;;;;5010244;28;20189;-45
2022/08/07 08:27:10;;;;;;;1.60;1.50;;;27.90;34.60;;;;;;5010485;28;20480;-46
2022/08/07 08:29:51;;;;;;;1.60;1.50;;;28.10;33.80;;;;;;5009925;28;21102;-49
2022/08/07 08:32:20;;;;;;;1.70;1.60;;;27.80;33.70;;;;;;5012559;28;20484;-46
2022/08/07 08:34:49;;;;;;;2.67;1.60;;;28.10;33.20;;;;;;5013167;28;20522;-46
2022/08/07 08:37:17;;;;;;;1.40;1.30;;;28.30;32.80;;;;;;5020861;28;20426;-46
2022/08/07 08:39:45;;;;;;;3.03;1.53;;;28.40;30.90;;;;;;5031712;28;20420;-45
2022/08/07 08:42:31;;;;;;;1.30;1.20;;;28.60;31.10;;;;;;5032824;28;20432;-45
2022/08/07 08:45:12;;;;;;;1.23;1.13;;;28.90;30.50;;;;;;5032456;28;20482;-49
2022/08/07 08:48:07;;;;;;;1.47;1.30;;;29.10;30.30;;;;;;5033420;28;20475;-46
2022/08/07 08:50:49;;;;;;;1.83;1.20;;;29.20;30.00;;;;;;5025376;28;20444;-46
2022/08/07 08:53:39;;;;;;;2.67;1.47;;;29.40;29.90;;;;;;5032586;28;20558;-48
2022/08/07 08:56:35;;;;;;;1.50;1.40;;;29.40;30.00;;;;;;5018304;28;20503;-45
2022/08/07 08:59:52;;;;;;;1.53;1.43;;;29.00;29.30;;;;;;5007590;28;20472;-47
2022/08/07 09:02:40;;;;;;;1.30;1.20;;;28.50;29.80;;;;;;4977074;28;20457;-45
2022/08/07 09:05:30;;;;;;;1.53;1.03;;;28.30;30.10;;;;;;5028434;28;20440;-46
2022/08/07 09:08:11;;;;;;;1.00;1.00;;;28.70;29.80;;;;;;5014203;28;20437;-49
2022/08/07 09:11:04;;;;;;;1.90;1.23;;;29.10;29.60;;;;;;5012456;28;20464;-45
2022/08/07 09:13:48;;;;;;;1.87;1.30;;;29.50;28.90;;;;;;5012371;28;20441;-45
2022/08/07 09:16:35;;;;;;;1.27;1.07;;;29.60;28.10;;;;;;5020001;28;20494;-49
2022/08/07 09:19:36;;;;;;;1.30;1.20;;;29.60;28.20;;;;;;5032183;28;20511;-45
2022/08/07 09:22:07;;;;;;;1.50;1.23;;;29.60;28.30;;;;;;5032553;28;20440;-45
2022/08/07 09:24:43;;;;;;;1.27;1.20;;;29.60;27.90;;;;;;5032183;28;20511;-49
2022/08/07 09:27:17;;;;;;;1.00;1.00;;;29.80;26.90;;;;;;5032693;28;20866;-45
2022/08/07 09:29:51;;;;;;;1.47;1.00;;;29.70;27.20;;;;;;5031994;28;20432;-44
2022/08/07 09:32:40;;;;;;;2.30;1.30;;;29.80;27.20;;;;;;5030297;28;20499;-46
2022/08/07 09:35:40;;;;;;;1.77;1.10;;;30.00;26.60;;;;;;5031918;28;20443;-45
2022/08/07 09:38:24;;;;;;;1.20;1.10;;;30.40;26.60;;;;;;5032321;28;20440;-48
2022/08/07 09:41:13;;;;;;;1.23;1.03;;;30.40;25.70;;;;;;5032479;28;20432;-45
2022/08/07 09:43:48;;;;;;;1.93;1.03;;;30.40;26.40;;;;;;5030520;28;20444;-45
2022/08/07 09:46:17;;;;;;;1.20;1.00;;;30.30;26.50;;;;;;5032447;28;20801;-45
2022/08/07 09:48:57;;;;;;;1.63;1.20;;;30.50;26.50;;;;;;5031695;28;20540;-48
2022/08/07 09:51:44;;;;;;;1.10;1.10;;;30.30;26.10;;;;;;5031993;28;20479;-45
2022/08/07 09:54:21;;;;;;;2.53;1.07;;;30.10;25.70;;;;;;5031150;28;20476;-46
2022/08/07 09:57:28;;;;;;;1.40;1.27;;;30.50;25.20;;;;;;5024285;28;20432;-45
2022/08/07 10:00:23;;;;;;;1.00;1.00;;;30.80;25.20;;;;;;5016920;28;20491;-46
2022/08/07 10:03:13;;;;;;;1.10;1.00;;;30.70;25.50;;;;;;5010089;28;20818;-46
2022/08/07 10:06:16;;;;;;;1.30;1.20;;;30.50;25.50;;;;;;5011642;28;20535;-45
2022/08/07 10:09:15;;;;;;;1.30;1.20;;;31.00;26.10;;;;;;5012084;28;20439;-45
2022/08/07 10:12:03;;;;;;;1.13;1.03;;;31.80;25.90;;;;;;5022236;28;20483;-49
2022/08/07 10:14:47;;;;;;;5.13;3.47;;;31.70;24.80;;;;;;5031217;28;20892;-45
2022/08/07 10:17:13;;;;;;;3.10;1.63;;;31.80;24.70;;;;;;5031746;28;20440;-50
2022/08/07 10:20:10;;;;;;;1.20;1.10;;;31.70;25.50;;;;;;5031172;28;20432;-45
2022/08/07 10:22:42;;;;;;;1.30;1.20;;;31.80;25.10;;;;;;5031113;28;20197;-45
2022/08/07 10:25:45;;;;;;;1.00;1.00;;;32.40;24.70;;;;;;5030733;28;20519;-46
2022/08/07 10:28:34;;;;;;;1.37;1.27;;;32.60;24.40;;;;;;5031518;28;20971;-45
2022/08/07 10:31:39;;;;;;;1.10;0.90;;;32.50;24.40;;;;;;5031574;28;20479;-45
2022/08/07 10:34:17;;;;;;;2.93;1.07;;;32.40;24.60;;;;;;5027471;28;20446;-46
2022/08/07 10:37:11;;;;;;;1.63;1.40;;;32.70;24.10;;;;;;5031319;28;20446;-45
2022/08/07 10:39:52;;;;;;;1.03;0.93;;;32.80;24.10;;;;;;5003256;28;20804;-46
2022/08/07 10:42:41;;;;;;;1.30;1.20;;;32.70;24.40;;;;;;5030906;28;20439;-45
2022/08/07 10:45:48;;;;;;;1.33;1.00;;;32.80;23.70;;;;;;5030676;28;20947;-45
2022/08/07 10:48:51;;;;;;;1.50;1.23;;;32.30;24.50;;;;;;5017838;28;20507;-46
2022/08/07 10:51:21;;;;;;;1.17;1.07;;;32.40;24.60;;;;;;5031296;28;20525;-45
2022/08/07 10:53:53;;;;;;;1.20;1.10;;;32.50;24.40;;;;;;5028448;28;20483;-47
2022/08/07 10:56:50;;;;;;;0.90;0.90;;;32.40;24.00;;;;;;5014005;28;20433;-45
2022/08/07 10:59:45;;;;;;;1.13;1.10;;;33.00;24.50;;;;;;5010578;28;20441;-46
2022/08/07 11:02:19;;;;;;;1.53;1.10;;;33.40;24.10;;;;;;5015081;28;20440;-45
2022/08/07 11:05:33;;;;;;;1.77;1.50;;;33.70;23.60;;;;;;5023768;28;20438;-45
2022/08/07 11:08:28;;;;;;;2.00;1.20;;;34.10;23.10;;;;;;4931614;29;20507;-45
2022/08/07 11:11:10;;;;;;;1.20;1.03;;;34.60;22.80;;;;;;4995852;28;20496;-46
2022/08/07 11:13:41;;;;;;;2.20;1.17;;;34.30;22.60;;;;;;5010157;28;20473;-47
2022/08/07 11:16:14;;;;;;;1.50;0.87;;;34.00;23.10;;;;;;5011024;28;20439;-46
2022/08/07 11:18:50;;;;;;;1.43;1.33;;;33.90;22.50;;;;;;5010225;28;20433;-46
2022/08/07 11:21:33;;;;;;;2.57;1.27;;;33.30;22.90;;;;;;5009285;28;20936;-46
2022/08/07 11:24:25;;;;;;;1.47;0.90;;;33.30;23.10;;;;;;5010064;28;20854;-46
2022/08/07 11:27:16;;;;;;;0.97;0.93;;;33.40;22.80;;;;;;5007835;28;20591;-48
2022/08/07 11:30:05;;;;;;;1.10;1.00;;;33.60;23.00;;;;;;5010310;28;20506;-45
2022/08/07 11:32:38;;;;;;;2.30;1.00;;;32.80;23.00;;;;;;5018388;28;20990;-45
2022/08/07 11:35:18;;;;;;;1.07;0.87;;;32.00;23.90;;;;;;5030155;28;21004;-45
2022/08/07 11:38:02;;;;;;;2.57;1.20;;;31.50;24.60;;;;;;5030517;28;20519;-45
2022/08/07 11:40:30;;;;;;;1.00;0.97;;;32.10;23.90;;;;;;5029922;28;21198;-47
2022/08/07 11:43:28;;;;;;;2.20;1.27;;;32.80;23.90;;;;;;5030216;28;20459;-46
2022/08/07 11:46:09;;;;;;;0.97;0.93;;;33.50;23.20;;;;;;5030568;28;20809;-46
2022/08/07 11:48:53;;;;;;;1.63;1.00;;;33.50;22.80;;;;;;5029205;28;20427;-46
2022/08/07 11:52:03;;;;;;;2.03;1.33;;;32.60;23.30;;;;;;5030386;28;20519;-45
2022/08/07 11:54:54;;;;;;;1.40;0.93;;;31.90;23.70;;;;;;4994641;28;20488;-45
2022/08/07 11:57:36;;;;;;;1.20;1.10;;;31.60;23.80;;;;;;5010560;28;20527;-45
2022/08/07 12:00:14;;;;;;;1.07;1.00;;;31.30;24.20;;;;;;5017930;28;20435;-45
2022/08/07 12:03:14;;;;;;;1.10;1.00;;;31.60;23.90;;;;;;5010335;28;20512;-45
2022/08/07 12:06:08;;;;;;;0.93;0.93;;;31.80;24.10;;;;;;5009975;28;20940;-45
2022/08/07 12:08:43;;;;;;;1.20;1.10;;;32.20;23.90;;;;;;5010631;28;20463;-45
2022/08/07 12:11:20;;;;;;;2.60;1.20;;;32.10;23.60;;;;;;5014069;28;20491;-45
2022/08/07 12:13:51;;;;;;;1.63;1.27;;;32.10;24.00;;;;;;5011874;28;20739;-48
2022/08/07 12:16:24;;;;;;;1.17;1.13;;;32.40;23.40;;;;;;5014178;28;20440;-49
2022/08/07 12:19:11;;;;;;;1.53;1.20;;;32.30;23.40;;;;;;5013595;28;20425;-49
2022/08/07 12:22:01;;;;;;;1.00;0.90;;;32.30;23.50;;;;;;5014312;28;20922;-47
2022/08/07 12:25:51;;;;;;;1.50;1.13;;;32.40;23.60;;;;;;5022508;28;20424;-48
2022/08/07 12:27:40;;;;;;;2.43;1.20;;;32.90;23.60;;;;;;5033552;28;20432;-50
2022/08/07 12:30:07;;;;;;;1.23;1.10;;;33.60;22.80;;;;;;5033324;28;20443;-49
2022/08/07 12:32:56;;;;;;;1.13;1.03;;;33.60;22.50;;;;;;5033432;28;20821;-49
2022/08/07 12:35:24;;;;;;;1.20;1.20;;;33.90;22.00;;;;;;5032923;28;20456;-49
2022/08/07 12:37:51;;;;;;;1.60;0.90;;;34.10;22.80;;;;;;5033413;28;20435;-47
2022/08/07 12:40:21;;;;;;;1.40;1.30;;;34.10;22.40;;;;;;5031313;28;20428;-47
2022/08/07 12:42:52;;;;;;;3.00;2.20;;;33.70;23.10;;;;;;5033285;28;20934;-48
2022/08/07 12:45:22;;;;;;;1.30;1.20;;;33.70;22.80;;;;;;5032966;28;20451;-50
2022/08/07 12:47:50;;;;;;;1.70;1.20;;;33.20;22.90;;;;;;5033104;28;21001;-48
2022/08/07 12:50:44;;;;;;;1.50;1.40;;;33.60;23.50;;;;;;5032895;28;20424;-48
2022/08/07 12:53:24;;;;;;;1.40;1.30;;;34.20;22.40;;;;;;5028398;28;20508;-49
2022/08/07 12:56:11;;;;;;;1.30;1.00;;;33.70;22.30;;;;;;5026448;28;20850;-48
2022/08/07 12:58:40;;;;;;;1.10;0.97;;;33.30;22.70;;;;;;5032774;28;20440;-49
2022/08/07 13:01:26;;;;;;;1.43;1.10;;;32.90;23.00;;;;;;5029982;28;20453;-49
2022/08/07 13:04:03;;;;;;;1.40;1.30;;;32.90;23.10;;;;;;5018024;28;20424;-49
2022/08/07 13:06:43;;;;;;;0.90;0.90;;;33.60;22.90;;;;;;5013222;28;20428;-50
2022/08/07 13:09:49;;;;;;;1.30;1.20;;;33.70;22.40;;;;;;5011670;28;20519;-46
2022/08/07 13:12:38;;;;;;;1.60;1.50;;;33.60;22.60;;;;;;5005336;28;20492;-49
2022/08/07 13:15:32;;;;;;;2.57;1.27;;;33.60;22.50;;;;;;5012743;28;21018;-46
2022/08/07 13:18:03;;;;;;;0.93;0.93;;;32.80;23.40;;;;;;5019902;28;20483;-50
2022/08/07 13:20:49;;;;;;;1.03;1.00;;;33.30;22.90;;;;;;5032277;28;20424;-46
2022/08/07 13:23:38;;;;;;;1.13;1.03;;;33.90;22.50;;;;;;5032543;28;20440;-49
2022/08/07 13:26:25;;;;;;;1.50;1.40;;;34.60;21.70;;;;;;5032962;28;20468;-50
2022/08/07 13:29:09;;;;;;;1.10;1.00;;;35.30;21.20;;;;;;5031878;28;20428;-50